Latest Weather Observations for Weipa

IDQ60801

Issued at 8:21 am EST Wednesday 14 November 2018 (issued every 10 minutes, with the page automatically refreshed every 10 minutes)

About weather observations | Map of weather stations | Latest weather observations for QLD | Other Formats
Station Details ID: 027045 Name: WEIPA AERO Lat: -12.68 Lon: 141.92 Height: 17.96 m
Data from the previous 72 hours. | See also: Recent months at Weipa
Date/Time
EST
Temp
°C
App
Temp
°C
Dew
Point
°C
Rel
Hum
%
Delta-T
°C
Wind Press
QNH
hPa
Press
MSL
hPa
Rain since
9am
mm
Dir  Spd
km/h
Gust
km/h
Spd
kts
Gust
kts
14/08:00am 27.2 27.3 20.3 66 4.5 ESE 20 30 11 16 1012.2 1012.1 0.0
14/07:30am 26.4 28.5 20.9 72 3.6 SE 11 17 6 9 1012.1 1012.0 0.0
14/07:00am 24.7 26.8 20.2 76 2.9 SE 9 11 5 6 1011.8 1011.7 0.0
14/06:30am 23.4 26.8 20.2 82 2.1 ESE 2 7 1 4 1011.3 1011.2 0.0
14/06:00am 22.6 25.1 19.9 85 1.7 ESE 6 7 3 4 1010.9 1010.8 0.0
14/05:30am 22.7 24.9 19.1 80 2.3 ESE 6 7 3 4 1010.7 1010.6 0.0
14/05:00am 22.6 25.9 19.0 80 2.3 CALM 0 0 0 0 1010.2 1010.1 0.0
14/04:30am 22.8 26.2 19.4 81 2.2 CALM 0 0 0 0 1009.9 1009.8 0.0
14/04:00am 23.0 26.4 19.4 80 2.3 CALM 0 0 0 0 1009.7 1009.6 0.0
14/03:50am 22.9 26.1 18.9 78 2.5 CALM 0 0 0 0 1009.4 1009.3 0.0
14/03:33am 23.5 26.8 19.2 77 2.7 CALM 0 0 0 0 1009.4 1009.3 0.0
14/03:30am 23.5 26.8 19.2 77 2.7 CALM 0 0 0 0 1009.4 1009.3 0.0
14/03:00am 23.7 27.0 19.2 76 2.9 CALM 0 0 0 0 1009.2 1009.1 0.0
14/02:30am 24.5 26.7 19.6 74 3.2 ENE 7 9 4 5 1009.3 1009.2 0.0
14/02:00am 24.6 26.9 19.4 73 3.3 SE 6 9 3 5 1009.5 1009.4 0.0
14/01:30am 25.2 27.0 19.6 71 3.6 E 9 13 5 7 1009.5 1009.4 0.0
14/01:00am 25.6 26.6 19.5 69 3.9 E 13 17 7 9 1009.8 1009.7 0.0
14/12:30am 25.6 26.4 19.0 67 4.2 E 13 17 7 9 1009.9 1009.8 0.0
14/12:00am 26.0 26.7 18.9 65 4.5 E 13 17 7 9 1010.2 1010.1 0.0
 
Date/Time
EST
Temp
°C
App
Temp
°C
Dew
Point
°C
Rel
Hum
%
Delta-T
°C
Wind Press
QNH
hPa
Press
MSL
hPa
Rain since
9am
mm
Dir  Spd
km/h
Gust
km/h
Spd
kts
Gust
kts
13/11:30pm 26.3 26.6 18.7 63 4.9 E 15 17 8 9 1010.4 1010.3 0.0
13/11:00pm 26.7 27.0 17.8 58 5.6 E 13 15 7 8 1010.6 1010.5 0.0
13/10:30pm 27.3 26.4 17.8 56 6.0 E 19 22 10 12 1010.7 1010.6 0.0
13/10:00pm 27.8 26.8 17.6 53 6.4 E 19 22 10 12 1010.6 1010.5 0.0
13/09:30pm 28.6 27.0 17.5 51 7.0 E 22 32 12 17 1010.1 1010.0 0.0
13/09:00pm 29.4 28.9 17.9 50 7.3 E 17 22 9 12 1009.7 1009.6 0.0
13/08:30pm 28.8 32.3 22.8 70 4.1 ENE 9 9 5 5 1009.3 1009.2 0.0
13/08:00pm 28.8 34.1 23.0 71 4.0 CALM 0 0 0 0 1008.8 1008.7 0.0
13/07:30pm 28.8 33.6 22.8 70 4.1 SW 2 7 1 4 1008.5 1008.4 0.0
13/07:00pm 29.2 33.0 22.4 66 4.6 W 6 9 3 5 1008.2 1008.1 0.0
13/06:30pm 29.4 32.9 22.1 65 4.9 W 7 11 4 6 1007.9 1007.8 0.0
13/06:00pm 30.1 32.2 21.7 60 5.7 W 13 20 7 11 1007.5 1007.4 0.0
13/05:30pm 30.3 32.0 21.7 60 5.8 W 15 20 8 11 1007.2 1007.1 0.0
13/05:00pm 30.4 32.2 21.8 60 5.8 W 15 22 8 12 1006.9 1006.8 0.0
13/04:30pm 30.6 30.3 21.1 57 6.4 W 24 33 13 18 1006.5 1006.4 0.0
13/04:00pm 35.0 33.1 15.3 30 12.4 NE 19 30 10 16 1006.4 1006.3 0.0
13/03:30pm 35.6 32.4 14.3 28 13.2 E 24 33 13 18 1006.3 1006.2 0.0
13/03:00pm 36.2 32.6 14.2 26 13.6 ESE 26 37 14 20 1006.5 1006.4 0.0
13/02:30pm 37.1 35.1 15.5 27 13.6 ESE 20 32 11 17 1006.6 1006.5 0.0
13/02:00pm 36.0 33.9 15.2 29 13.1 ENE 20 32 11 17 1007.0 1006.9 0.0
13/01:30pm 36.4 34.6 16.0 29 12.9 ENE 20 33 11 18 1007.5 1007.4 0.0
13/01:00pm 35.2 33.0 15.0 30 12.6 ESE 20 30 11 16 1007.8 1007.7 0.0
13/12:30pm 35.5 33.1 15.3 30 12.7 ESE 22 32 12 17 1008.4 1008.3 0.0
13/12:00pm 35.2 32.6 16.0 31 12.2 E 24 37 13 20 1008.8 1008.7 0.0
13/11:30am 34.7 32.9 17.0 35 11.3 E 22 37 12 20 1009.4 1009.3 0.0
13/11:00am 34.6 32.6 17.3 35 11.1 ESE 24 35 13 19 1009.9 1009.8 0.0
13/10:30am 33.8 31.1 17.5 38 10.5 ESE 28 43 15 23 1010.3 1010.2 0.0
13/10:00am 33.2 30.4 18.2 41 9.7 ESE 30 41 16 22 1010.4 1010.3 0.0
13/09:30am 32.0 29.0 18.6 45 8.7 ESE 32 39 17 21 1010.8 1010.7 0.0
13/09:00am 30.2 27.7 18.9 50 7.3 E 30 39 16 21 1011.1 1011.0 0.0
13/08:30am 29.5 27.9 19.2 54 6.7 E 26 39 14 21 1011.0 1010.9 0.0
13/08:00am 28.4 28.5 20.4 62 5.3 E 20 30 11 16 1011.0 1010.9 0.0
13/07:30am 27.0 27.8 20.6 68 4.2 E 17 24 9 13 1011.0 1010.9 0.0
13/07:00am 26.0 27.6 20.8 73 3.4 E 13 15 7 8 1010.9 1010.8 0.0
13/06:30am 24.8 26.8 20.7 78 2.7 E 11 15 6 8 1010.5 1010.4 0.0
13/06:00am 24.3 27.0 20.6 80 2.4 E 7 9 4 5 1010.4 1010.3 0.0
13/05:30am 24.3 27.0 20.6 80 2.4 E 7 9 4 5 1010.0 1009.9 0.0
13/05:00am 24.6 26.5 20.5 78 2.7 ENE 11 15 6 8 1009.6 1009.5 0.0
13/04:30am 24.9 26.4 20.6 77 2.8 E 13 17 7 9 1009.5 1009.4 0.0
13/04:00am 24.8 26.4 20.7 78 2.7 E 13 17 7 9 1009.5 1009.4 0.0
13/03:30am 24.7 26.6 20.6 78 2.7 ESE 11 15 6 8 1009.5 1009.4 0.0
13/03:00am 24.5 26.6 20.2 77 2.8 E 9 11 5 6 1009.3 1009.2 0.0
13/02:30am 25.1 27.3 20.4 75 3.1 ENE 9 11 5 6 1009.6 1009.5 0.0
13/02:00am 25.3 27.7 20.1 73 3.4 E 7 9 4 5 1009.7 1009.6 0.0
13/01:30am 25.6 28.1 20.2 72 3.5 SE 7 11 4 6 1010.1 1010.0 0.0
13/01:00am 25.9 28.3 20.0 70 3.8 ENE 7 9 4 5 1010.2 1010.1 0.0
13/12:30am 26.2 28.1 19.8 68 4.2 ESE 9 11 5 6 1010.6 1010.5 0.0
13/12:00am 26.5 28.2 19.4 65 4.6 E 9 9 5 5 1010.8 1010.7 0.0
 
Date/Time
EST
Temp
°C
App
Temp
°C
Dew
Point
°C
Rel
Hum
%
Delta-T
°C
Wind Press
QNH
hPa
Press
MSL
hPa
Rain since
9am
mm
Dir  Spd
km/h
Gust
km/h
Spd
kts
Gust
kts
12/11:30pm 26.7 28.3 19.1 63 4.9 E 9 11 5 6 1011.0 1010.9 0.0
12/11:00pm 27.0 28.5 18.8 60 5.3 ENE 9 11 5 6 1010.8 1010.7 0.0
12/10:30pm 27.5 28.2 18.8 59 5.6 E 13 19 7 10 1011.0 1010.9 0.0
12/10:00pm 28.0 27.4 18.4 56 6.1 E 19 26 10 14 1010.7 1010.6 0.0
12/09:30pm 28.5 27.5 18.0 53 6.7 E 20 28 11 15 1010.4 1010.3 0.0
12/09:00pm 29.1 28.3 18.5 52 6.8 E 20 26 11 14 1010.2 1010.1 0.0
12/08:30pm 29.7 28.9 18.5 51 7.2 E 20 30 11 16 1009.8 1009.7 0.0
12/08:00pm 30.2 29.2 18.0 48 7.8 E 20 32 11 17 1009.5 1009.4 0.0
12/07:30pm 31.0 29.0 17.3 43 8.7 E 24 30 13 16 1008.9 1008.8 0.0
12/07:00pm 31.8 29.4 16.5 39 9.6 ENE 24 37 13 20 1008.3 1008.2 0.0
12/06:30pm 32.5 30.1 16.3 37 10.2 E 24 33 13 18 1007.9 1007.8 0.0
12/06:00pm 33.2 30.8 16.5 36 10.6 ENE 24 35 13 19 1007.5 1007.4 0.0
12/05:30pm 34.4 32.0 15.3 31 11.9 ENE 22 32 12 17 1007.1 1007.0 0.0
12/05:00pm 35.1 33.1 15.4 30 12.4 ENE 20 28 11 15 1006.8 1006.7 0.0
12/04:30pm 35.8 33.4 15.5 29 12.8 ENE 22 30 12 16 1006.6 1006.5 0.0
12/04:00pm 35.6 33.5 15.3 29 12.8 E 20 26 11 14 1006.6 1006.5 0.0
12/03:30pm 36.3 34.3 15.4 28 13.1 ENE 20 28 11 15 1006.6 1006.5 0.0
12/03:00pm 35.9 33.2 15.6 30 12.8 ENE 24 37 13 20 1006.8 1006.7 0.0
12/02:30pm 36.2 34.2 16.4 31 12.6 ENE 22 32 12 17 1007.0 1006.9 0.0
12/02:00pm 35.6 33.6 16.4 32 12.2 ENE 22 32 12 17 1007.6 1007.5 0.0
12/01:30pm 34.5 32.1 16.4 34 11.5 ENE 24 35 13 19 1008.2 1008.1 0.0
12/01:00pm 35.7 34.1 18.3 35 11.4 ENE 24 33 13 18 1008.8 1008.7 0.0
12/12:30pm 34.1 32.4 17.3 36 10.8 E 22 32 12 17 1009.6 1009.5 0.0
12/12:00pm 33.7 32.6 18.6 40 9.9 ENE 22 30 12 16 1010.2 1010.1 0.0
12/11:30am 31.9 31.6 19.5 47 8.1 ENE 20 28 11 15 1010.8 1010.7 0.0
12/11:00am 30.8 30.8 19.8 52 7.2 ENE 19 24 10 13 1011.3 1011.2 0.0
12/10:30am 30.1 30.1 20.1 55 6.6 E 20 30 11 16 1011.8 1011.7 0.0
12/10:00am 29.4 28.8 19.7 56 6.3 ENE 22 28 12 15 1012.2 1012.1 0.0
12/09:30am 28.9 28.7 19.8 58 6.0 E 20 28 11 15 1012.1 1012.0 0.0
12/09:00am 28.6 28.7 20.3 60 5.5 E 20 28 11 15 1012.1 1012.0 0.0
12/08:30am 27.7 27.9 20.5 65 4.7 E 20 28 11 15 1012.0 1011.9 0.0
12/08:00am 27.3 29.1 21.1 69 4.1 E 13 19 7 10 1012.1 1012.0 0.0
12/07:30am 26.7 28.8 21.0 71 3.8 E 11 15 6 8 1011.8 1011.7 0.0
12/07:00am 26.3 28.7 20.8 71 3.6 ESE 9 13 5 7 1011.4 1011.3 0.0
12/06:30am 25.9 28.2 20.7 73 3.4 SE 9 13 5 7 1011.0 1010.9 0.0
12/06:00am 25.7 27.6 20.5 73 3.4 SE 11 13 6 7 1010.8 1010.7 0.0
12/05:30am 25.6 27.1 20.6 74 3.3 ESE 13 17 7 9 1010.4 1010.3 0.0
12/05:00am 25.5 28.1 20.5 74 3.3 ESE 7 9 4 5 1010.3 1010.2 0.0
12/04:30am 25.6 28.3 20.6 74 3.3 SE 7 11 4 6 1010.1 1010.0 0.0
12/04:00am 25.7 27.9 20.5 73 3.4 SE 9 13 5 7 1010.0 1009.9 0.0
12/03:30am 26.0 27.4 20.3 71 3.7 SE 13 17 7 9 1009.9 1009.8 0.0
12/03:00am 26.1 28.2 20.2 70 3.9 ESE 9 13 5 7 1009.9 1009.8 0.0
12/02:30am 26.4 27.3 20.0 68 4.2 ESE 15 20 8 11 1010.1 1010.0 0.0
12/02:00am 26.6 27.9 19.2 64 4.8 ESE 11 15 6 8 1010.2 1010.1 0.0
12/01:30am 26.8 28.1 19.2 63 4.9 E 11 13 6 7 1010.6 1010.5 0.0
12/01:00am 26.9 28.1 19.0 62 5.1 ENE 11 15 6 8 1010.7 1010.6 0.0
12/12:30am 27.1 27.2 19.2 62 5.1 E 17 20 9 11 1011.0 1010.9 0.0
12/12:00am 27.3 27.5 18.6 59 5.6 ESE 15 19 8 10 1011.2 1011.1 0.0
 
Date/Time
EST
Temp
°C
App
Temp
°C
Dew
Point
°C
Rel
Hum
%
Delta-T
°C
Wind Press
QNH
hPa
Press
MSL
hPa
Rain since
9am
mm
Dir  Spd
km/h
Gust
km/h
Spd
kts
Gust
kts
11/11:30pm 27.7 28.3 18.7 58 5.8 E 13 17 7 9 1011.7 1011.6 0.0
11/11:00pm 28.0 28.4 19.0 58 5.8 E 15 20 8 11 1011.5 1011.4 0.0
11/10:30pm 28.6 29.0 19.0 56 6.2 E 15 20 8 11 1011.1 1011.0 0.0
11/10:00pm 29.2 29.0 18.6 52 6.8 E 17 24 9 13 1010.8 1010.7 0.0
11/09:30pm 29.0 32.1 22.2 66 4.6 E 9 13 5 7 1010.5 1010.4 0.0
11/09:00pm 29.2 34.0 22.9 69 4.3 E 2 9 1 5 1010.2 1010.1 0.0
11/08:30pm 29.1 34.3 22.8 69 4.3 CALM 0 0 0 0 1010.1 1010.0 0.0
11/08:00pm 29.0 33.3 22.7 69 4.3 WSW 4 13 2 7 1009.7 1009.6 0.0
11/07:30pm 29.1 32.6 22.8 69 4.3 WSW 9 13 5 7 1009.0 1008.9 0.0
11/07:00pm 29.2 32.3 22.9 69 4.3 WSW 11 20 6 11 1008.6 1008.5 0.0
11/06:30pm 29.4 33.0 23.1 69 4.3 W 9 13 5 7 1007.8 1007.7 0.0
11/06:00pm 29.3 31.9 23.3 70 4.1 W 15 22 8 12 1007.3 1007.2 0.0
11/05:30pm 29.9 32.6 22.9 66 4.8 W 13 19 7 10 1007.1 1007.0 0.0
11/05:00pm 30.4 32.2 22.6 63 5.3 W 17 26 9 14 1006.5 1006.4 0.0
11/04:30pm 31.2 32.8 22.2 58 6.1 W 17 33 9 18 1006.1 1006.0 0.0
11/04:00pm 35.4 34.2 16.2 32 12.2 ENE 17 22 9 12 1005.9 1005.8 0.0
11/03:30pm 36.5 36.1 17.1 31 12.5 E 15 26 8 14 1005.9 1005.8 0.0
11/03:00pm 35.8 34.2 16.5 31 12.3 E 20 32 11 17 1006.2 1006.1 0.0
11/02:30pm 35.6 34.9 16.4 32 12.2 ENE 15 20 8 11 1006.2 1006.1 0.0
11/02:00pm 35.0 33.9 16.3 32 11.9 ENE 17 28 9 15 1006.5 1006.4 0.0
11/01:30pm 35.3 35.2 17.0 33 11.7 ENE 13 32 7 17 1006.9 1006.8 0.0
11/01:00pm 35.0 35.0 17.2 34 11.5 ENE 13 22 7 12 1007.4 1007.3 0.0
11/12:30pm 34.9 35.5 17.6 35 11.2 E 11 26 6 14 1007.9 1007.8 0.0
11/12:00pm 34.5 33.4 17.7 37 10.9 E 20 32 11 17 1008.4 1008.3 0.0
11/11:30am 34.2 33.7 18.7 40 10.1 NE 19 30 10 16 1008.7 1008.6 0.0
11/11:00am 34.2 33.7 18.7 40 10.2 ENE 19 32 10 17 1009.3 1009.2 0.0
11/10:30am 32.5 32.1 19.0 44 8.8 E 19 28 10 15 1009.7 1009.6 0.0
11/10:00am 32.4 32.0 19.3 46 8.6 ENE 20 30 11 16 1010.0 1009.9 0.0
11/09:30am 30.4 29.8 19.7 52 7.0 ENE 22 30 12 16 1010.4 1010.3 0.0
11/09:00am 30.1 29.3 20.1 55 6.6 E 24 33 13 18 1010.4 1010.3 0.0
11/08:30am 29.0 28.9 20.7 61 5.5 E 22 32 12 17 1010.4 1010.3 0.0

Other Formats:

Comma delimited format used in spreadsheet applications
http://www.bom.gov.au/fwo/IDQ60801/IDQ60801.94170.axf

JavaScript Object Notation format (JSON) in row-major order
http://www.bom.gov.au/fwo/IDQ60801/IDQ60801.94170.json